Time;durP1;ratioP1;P1;durP2;ratioP2;P2;SDS_P1;SDS_P2;PMS_P1;PMS_P2;Temp;Humidity;BMP_temperature;BMP_pressure;BME280_temperature;BME280_humidity;BME280_pressure;Samples;Min_cycle;Max_cycle;Signal;HPM_P1;HPM_P2
2021/03/24 00:01:19;;;;;;;35.83;16.98;;;6.90;72.40;;;;;;5037613;28;20369;-83
2021/03/24 00:03:46;;;;;;;32.92;16.10;;;6.90;73.30;;;;;;5037500;28;20106;-83
2021/03/24 00:06:14;;;;;;;33.50;15.70;;;6.70;73.20;;;;;;5035615;28;20071;-83
2021/03/24 00:08:41;;;;;;;32.35;15.73;;;6.70;73.60;;;;;;5038751;28;20392;-84
2021/03/24 00:11:10;;;;;;;33.40;15.70;;;6.60;73.50;;;;;;5029834;28;20049;-81
2021/03/24 00:13:39;;;;;;;33.75;15.65;;;6.50;73.60;;;;;;5033732;28;20207;-82
2021/03/24 00:16:07;;;;;;;29.60;15.50;;;6.50;73.60;;;;;;5031993;28;20046;-79
2021/03/24 00:18:34;;;;;;;29.33;14.75;;;6.50;73.80;;;;;;5032944;28;20443;-80
2021/03/24 00:21:02;;;;;;;28.30;14.38;;;6.50;73.30;;;;;;5030190;28;20138;-79
2021/03/24 00:23:28;;;;;;;31.63;14.40;;;6.40;73.50;;;;;;5042288;28;20049;-79
2021/03/24 00:25:54;;;;;;;31.10;13.85;;;6.60;73.70;;;;;;5032420;28;20087;-78
2021/03/24 00:28:21;;;;;;;35.35;15.25;;;6.50;73.90;;;;;;5035796;28;20103;-78
2021/03/24 00:30:49;;;;;;;33.17;14.90;;;6.50;73.60;;;;;;5033332;28;20060;-78
2021/03/24 00:33:24;;;;;;;29.50;14.88;;;6.40;74.20;;;;;;5035948;28;20046;-80
2021/03/24 00:35:52;;;;;;;32.55;15.68;;;6.40;74.40;;;;;;5035278;28;20042;-81
2021/03/24 00:38:20;;;;;;;31.83;14.43;;;6.30;74.70;;;;;;5035523;28;20103;-78
2021/03/24 00:40:51;;;;;;;35.30;15.10;;;6.30;75.10;;;;;;5037706;28;20107;-80
2021/03/24 00:43:17;;;;;;;;;;;6.20;75.20;;;;;;5035662;28;20063;-79
2021/03/24 00:45:44;;;;;;;29.33;13.63;;;6.20;75.50;;;;;;5031918;28;19936;-81
2021/03/24 00:48:32;;;;;;;35.20;15.20;;;6.20;75.50;;;;;;5033512;28;20053;-81
2021/03/24 00:50:59;;;;;;;29.65;14.30;;;6.40;75.00;;;;;;5038067;28;20124;-80
2021/03/24 00:53:26;;;;;;;37.70;15.65;;;6.60;75.10;;;;;;5030607;28;20160;-80
2021/03/24 00:55:53;;;;;;;31.15;14.60;;;6.50;75.00;;;;;;5034008;28;20073;-80
2021/03/24 00:58:20;;;;;;;33.40;15.82;;;6.40;74.90;;;;;;5033498;28;20049;-80
2021/03/24 01:00:50;;;;;;;33.10;15.60;;;6.30;75.20;;;;;;5035351;28;20111;-80
2021/03/24 01:03:18;;;;;;;34.28;15.38;;;6.20;75.90;;;;;;5032865;28;20058;-80
2021/03/24 01:05:49;;;;;;;34.22;15.63;;;6.10;76.50;;;;;;5037853;28;20480;-80
2021/03/24 01:08:20;;;;;;;;;;;6.10;76.60;;;;;;5037184;28;20075;-79
2021/03/24 01:10:47;;;;;;;32.10;15.85;;;6.10;77.10;;;;;;5043829;28;19994;-81
2021/03/24 01:13:15;;;;;;;36.65;16.05;;;6.10;76.80;;;;;;5037187;28;20156;-79
2021/03/24 01:15:42;;;;;;;33.40;14.75;;;6.00;77.60;;;;;;5044319;28;20049;-81
2021/03/24 01:18:10;;;;;;;37.00;15.90;;;5.80;77.60;;;;;;5036930;28;20068;-80
2021/03/24 01:20:39;;;;;;;32.58;15.95;;;5.80;78.10;;;;;;5039525;28;21296;-80
2021/03/24 01:23:05;;;;;;;35.55;16.38;;;5.70;78.50;;;;;;5036044;28;20376;-80
2021/03/24 01:25:33;;;;;;;34.20;15.55;;;5.80;78.80;;;;;;5043764;28;20048;-81
2021/03/24 01:28:02;;;;;;;34.53;15.85;;;5.80;78.60;;;;;;5042171;28;20044;-80
2021/03/24 01:30:30;;;;;;;38.95;16.83;;;6.10;79.20;;;;;;5027069;28;20099;-81
2021/03/24 01:32:57;;;;;;;36.42;16.58;;;5.70;78.90;;;;;;5038379;28;20083;-80
2021/03/24 01:35:25;;;;;;;37.70;16.02;;;5.70;79.30;;;;;;5039753;28;20044;-81
2021/03/24 01:37:52;;;;;;;34.20;16.00;;;5.60;79.70;;;;;;5045650;28;20472;-82
2021/03/24 01:40:26;;;;;;;32.45;15.85;;;5.70;80.00;;;;;;5037227;28;20372;-82
2021/03/24 01:42:55;;;;;;;35.63;15.63;;;5.70;79.70;;;;;;5038861;28;20133;-81
2021/03/24 01:45:25;;;;;;;33.70;15.55;;;5.80;79.40;;;;;;5037932;28;20053;-82
2021/03/24 01:47:55;;;;;;;33.38;16.08;;;5.70;79.50;;;;;;5039824;28;20053;-81
2021/03/24 01:50:32;;;;;;;32.38;15.27;;;5.60;80.10;;;;;;5041604;28;20123;-83
2021/03/24 01:53:13;;;;;;;32.63;15.93;;;5.60;80.40;;;;;;5036247;28;20132;-82
2021/03/24 01:55:39;;;;;;;34.60;16.23;;;5.60;80.60;;;;;;5037830;28;20049;-81
2021/03/24 01:58:06;;;;;;;36.67;16.50;;;5.60;80.70;;;;;;5036087;28;20057;-80
2021/03/24 02:00:32;;;;;;;36.58;15.85;;;5.70;80.70;;;;;;5042111;28;20400;-82
2021/03/24 02:03:00;;;;;;;39.50;16.38;;;5.70;80.10;;;;;;5036760;28;20500;-81
2021/03/24 02:05:26;;;;;;;37.40;16.17;;;5.80;79.80;;;;;;5036456;28;20080;-80
2021/03/24 02:08:10;;;;;;;31.15;16.08;;;5.90;79.50;;;;;;5040255;28;20083;-81
2021/03/24 02:10:46;;;;;;;30.45;15.30;;;6.10;79.00;;;;;;5035646;28;20045;-81
2021/03/24 02:13:34;;;;;;;32.47;15.82;;;5.90;79.10;;;;;;5036377;28;20416;-79
2021/03/24 02:16:14;;;;;;;35.50;16.17;;;5.90;79.40;;;;;;5042015;28;20107;-82
2021/03/24 02:18:43;;;;;;;39.40;16.65;;;5.80;79.80;;;;;;5053115;28;20049;-80
2021/03/24 02:21:19;;;;;;;34.55;15.60;;;5.60;80.40;;;;;;5036251;28;20056;-81
2021/03/24 02:24:27;;;;;;;31.52;15.57;;;5.60;80.70;;;;;;5037880;28;20071;-81
2021/03/24 02:27:15;;;;;;;32.25;14.98;;;5.60;80.90;;;;;;5020328;28;20511;-81
2021/03/24 02:30:05;;;;;;;34.75;16.25;;;5.60;81.10;;;;;;5036549;28;20060;-81
2021/03/24 02:32:36;;;;;;;34.25;16.20;;;5.50;81.30;;;;;;5037631;28;20052;-81
2021/03/24 02:35:09;;;;;;;32.70;14.93;;;5.70;80.30;;;;;;5034644;28;20057;-82
2021/03/24 02:37:36;;;;;;;32.50;15.70;;;5.70;80.00;;;;;;5039544;28;20078;-81
2021/03/24 02:40:11;;;;;;;34.45;15.15;;;5.70;80.00;;;;;;5037859;28;20060;-82
2021/03/24 02:42:41;;;;;;;35.45;16.10;;;5.70;79.80;;;;;;5038836;28;20107;-82
2021/03/24 02:45:09;;;;;;;36.20;16.45;;;5.60;81.20;;;;;;5038386;28;20061;-80
2021/03/24 02:47:38;;;;;;;35.83;15.85;;;5.50;81.00;;;;;;5035919;28;20076;-81
2021/03/24 02:50:07;;;;;;;35.40;16.70;;;5.40;81.70;;;;;;5042779;28;20053;-82
2021/03/24 02:52:34;;;;;;;32.90;16.48;;;5.20;82.80;;;;;;5037227;28;20041;-82
2021/03/24 02:55:04;;;;;;;35.08;16.42;;;5.20;83.30;;;;;;5036531;28;20092;-81
2021/03/24 02:57:31;;;;;;;33.53;16.40;;;5.20;83.60;;;;;;5035175;28;20045;-82
2021/03/24 02:59:57;;;;;;;35.95;15.95;;;5.10;84.10;;;;;;5036296;28;20115;-82
2021/03/24 03:02:28;;;;;;;40.25;16.90;;;5.20;84.30;;;;;;5020549;28;20099;-81
2021/03/24 03:05:03;;;;;;;33.30;15.13;;;5.10;85.10;;;;;;5033336;28;20053;-79
2021/03/24 03:07:32;;;;;;;35.58;15.73;;;5.10;85.00;;;;;;5041598;28;20474;-81
2021/03/24 03:10:32;;;;;;;32.78;15.85;;;5.20;85.20;;;;;;5031859;28;20443;-80
2021/03/24 03:13:02;;;;;;;36.42;16.23;;;5.30;84.90;;;;;;5063173;28;20145;-81
2021/03/24 03:15:37;;;;;;;37.25;15.75;;;5.30;84.70;;;;;;5040425;28;20480;-82
2021/03/24 03:18:15;;;;;;;38.08;17.25;;;5.20;85.30;;;;;;5033877;28;20046;-81
2021/03/24 03:20:47;;;;;;;31.45;15.40;;;5.30;84.60;;;;;;5035065;28;20049;-82
2021/03/24 03:23:22;;;;;;;32.72;16.13;;;5.40;83.60;;;;;;5035846;28;20092;-81
2021/03/24 03:25:58;;;;;;;37.70;15.82;;;5.30;84.40;;;;;;5039663;28;20095;-82
2021/03/24 03:28:27;;;;;;;35.30;16.35;;;5.30;83.90;;;;;;5043875;28;20052;-81
2021/03/24 03:30:58;;;;;;;33.78;18.00;;;5.20;84.50;;;;;;5038703;28;20064;-81
2021/03/24 03:33:30;;;;;;;46.25;18.30;;;5.00;86.40;;;;;;5035639;28;20053;-80
2021/03/24 03:35:57;;;;;;;41.53;17.77;;;4.90;88.60;;;;;;5041577;28;20131;-80
2021/03/24 03:38:26;;;;;;;38.08;17.88;;;5.00;90.20;;;;;;5050087;28;20057;-82
2021/03/24 03:40:56;;;;;;;42.70;18.08;;;4.80;90.50;;;;;;5042081;28;20041;-81
2021/03/24 03:43:24;;;;;;;44.50;19.48;;;4.80;90.80;;;;;;5040949;28;20056;-81
2021/03/24 03:45:54;;;;;;;43.75;19.17;;;4.90;90.80;;;;;;5037804;28;20045;-82
2021/03/24 03:48:21;;;;;;;44.75;19.13;;;4.80;90.70;;;;;;5031301;28;20565;-82
2021/03/24 03:50:55;;;;;;;45.10;19.85;;;4.80;91.00;;;;;;5045995;28;20060;-82
2021/03/24 03:53:38;;;;;;;44.70;19.38;;;4.80;91.10;;;;;;5050340;28;20044;-82
2021/03/24 03:56:43;;;;;;;39.85;18.25;;;5.10;91.20;;;;;;5045983;28;20089;-79
2021/03/24 03:59:18;;;;;;;39.65;18.88;;;5.20;90.50;;;;;;5039990;28;20107;-79
2021/03/24 04:01:54;;;;;;;40.10;17.60;;;4.90;89.80;;;;;;5038303;28;20107;-79
2021/03/24 04:04:31;;;;;;;41.28;18.27;;;4.90;90.00;;;;;;5038868;28;20053;-79
2021/03/24 04:07:16;;;;;;;40.97;17.83;;;5.00;88.80;;;;;;5042534;28;20053;-79
2021/03/24 04:09:44;;;;;;;40.40;18.13;;;5.10;88.00;;;;;;5038308;28;20378;-79
2021/03/24 04:12:14;;;;;;;39.65;16.60;;;5.00;88.60;;;;;;5042670;28;20102;-79
2021/03/24 04:14:42;;;;;;;38.38;17.55;;;5.00;88.70;;;;;;5042175;28;20076;-79
2021/03/24 04:17:18;;;;;;;39.63;18.08;;;5.10;88.10;;;;;;5041414;28;20663;-78
2021/03/24 04:19:48;;;;;;;36.35;17.33;;;5.00;88.20;;;;;;5037986;28;20053;-78
2021/03/24 04:22:18;;;;;;;37.60;17.02;;;5.00;88.00;;;;;;5035122;28;20041;-76
2021/03/24 04:24:53;;;;;;;41.58;17.70;;;5.20;87.40;;;;;;5040009;28;20041;-77
2021/03/24 04:27:22;;;;;;;38.05;17.42;;;5.20;86.70;;;;;;5039747;28;20048;-78
2021/03/24 04:29:55;;;;;;;38.78;18.27;;;4.90;87.60;;;;;;5037730;28;20052;-77
2021/03/24 04:32:21;;;;;;;35.28;16.83;;;4.80;89.00;;;;;;5045277;28;20044;-77
2021/03/24 04:34:48;;;;;;;38.35;17.88;;;4.70;90.00;;;;;;5034358;28;20057;-77
2021/03/24 04:37:25;;;;;;;40.85;17.85;;;4.80;90.00;;;;;;5052794;28;20061;-77
2021/03/24 04:40:00;;;;;;;47.50;17.60;;;4.70;89.90;;;;;;5044449;28;20060;-78
2021/03/24 04:42:45;;;;;;;37.05;17.42;;;4.70;90.10;;;;;;5043256;28;20380;-78
2021/03/24 04:45:30;;;;;;;34.97;17.23;;;4.90;89.00;;;;;;5047594;28;20049;-78
2021/03/24 04:48:01;;;;;;;39.78;16.98;;;4.70;89.70;;;;;;5051744;28;20419;-78
2021/03/24 04:50:39;;;;;;;36.35;16.83;;;4.70;90.30;;;;;;5051123;28;20059;-78
2021/03/24 04:53:09;;;;;;;35.72;16.40;;;4.60;90.40;;;;;;5047759;28;20059;-78
2021/03/24 04:55:37;;;;;;;48.00;18.10;;;4.50;90.40;;;;;;5035848;28;20063;-78
2021/03/24 04:58:06;;;;;;;40.00;17.33;;;4.60;91.10;;;;;;5044544;28;20049;-78
2021/03/24 05:00:43;;;;;;;33.03;16.33;;;4.70;90.10;;;;;;5044518;28;20292;-78
2021/03/24 05:03:14;;;;;;;38.63;17.17;;;4.60;90.40;;;;;;5038554;28;22725;-78
2021/03/24 05:05:53;;;;;;;46.97;20.80;;;4.60;90.30;;;;;;5049374;28;20045;-78
2021/03/24 05:08:42;;;;;;;40.03;15.95;;;4.60;90.40;;;;;;5043197;28;20483;-77
2021/03/24 05:11:36;;;;;;;38.85;16.63;;;4.50;90.50;;;;;;5034870;28;20049;-77
2021/03/24 05:14:19;;;;;;;45.13;16.98;;;4.50;91.10;;;;;;5044007;28;20052;-77
2021/03/24 05:16:48;;;;;;;36.38;16.80;;;4.60;90.80;;;;;;5039515;28;20411;-77
2021/03/24 05:19:25;;;;;;;43.90;17.13;;;4.60;90.60;;;;;;5036415;28;20045;-77
2021/03/24 05:22:16;;;;;;;40.95;15.88;;;4.60;90.90;;;;;;5043864;28;20103;-77
2021/03/24 05:24:44;;;;;;;34.53;16.90;;;4.60;90.80;;;;;;5043061;28;20095;-77
2021/03/24 05:27:17;;;;;;;36.95;16.73;;;4.40;91.40;;;;;;5045819;28;20134;-77
2021/03/24 05:29:52;;;;;;;36.83;16.92;;;4.60;91.10;;;;;;5042867;28;20049;-79
2021/03/24 05:32:26;;;;;;;39.13;17.85;;;4.40;91.20;;;;;;5045842;28;20075;-78
2021/03/24 05:34:56;;;;;;;39.85;17.58;;;4.40;91.60;;;;;;5047862;28;20495;-78
2021/03/24 05:37:29;;;;;;;41.22;17.30;;;4.60;91.00;;;;;;5045968;28;20049;-78
2021/03/24 05:40:10;;;;;;;37.13;17.15;;;4.40;91.20;;;;;;5041856;28;20057;-78
2021/03/24 05:43:17;;;;;;;40.40;16.45;;;4.50;91.80;;;;;;5055937;28;20057;-79
2021/03/24 05:46:15;;;;;;;33.83;15.93;;;4.50;92.20;;;;;;5046042;28;20057;-78
2021/03/24 05:49:33;;;;;;;34.55;15.93;;;4.50;92.80;;;;;;5046335;28;20055;-79
2021/03/24 05:52:54;;;;;;;36.08;15.48;;;4.70;91.80;;;;;;5081611;28;20043;-78
2021/03/24 05:55:35;;;;;;;38.22;16.55;;;4.40;92.20;;;;;;5031453;28;20441;-79
2021/03/24 05:58:18;;;;;;;;;;;5.00;90.90;;;;;;5047716;28;20110;-80
2021/03/24 06:01:13;;;;;;;39.40;17.17;;;5.10;90.50;;;;;;5051076;28;19921;-80
2021/03/24 06:04:24;;;;;;;30.70;15.02;;;4.90;90.40;;;;;;5047951;28;20041;-79
2021/03/24 06:07:06;;;;;;;;;;;5.60;89.40;;;;;;5062768;28;20092;-79
2021/03/24 06:09:48;;;;;;;33.95;14.90;;;5.60;86.80;;;;;;5043665;28;19924;-78
2021/03/24 06:12:30;;;;;;;34.97;15.70;;;6.10;85.30;;;;;;5053208;28;20041;-78
2021/03/24 06:15:07;;;;;;;30.08;14.80;;;6.50;82.00;;;;;;5042053;28;20050;-80
2021/03/24 06:17:42;;;;;;;39.13;18.13;;;6.50;80.50;;;;;;5047452;28;20438;-78
2021/03/24 06:20:14;;;;;;;39.45;16.23;;;5.80;83.10;;;;;;5047201;28;20351;-79
2021/03/24 06:23:08;;;;;;;32.20;15.77;;;6.50;82.20;;;;;;5048420;28;20053;-79
2021/03/24 06:25:55;;;;;;;37.30;16.35;;;7.10;78.70;;;;;;5039887;28;20483;-79
2021/03/24 06:28:54;;;;;;;39.78;16.08;;;6.40;80.00;;;;;;5038382;28;20049;-79
2021/03/24 06:31:22;;;;;;;32.17;15.68;;;6.60;80.40;;;;;;5041460;28;20049;-78
2021/03/24 06:34:08;;;;;;;30.70;15.52;;;6.90;78.60;;;;;;5046043;28;20060;-80
2021/03/24 06:37:04;;;;;;;33.22;15.85;;;7.00;77.90;;;;;;5049602;28;20382;-80
2021/03/24 06:39:44;;;;;;;29.23;15.00;;;7.20;76.40;;;;;;5044161;28;20067;-79
2021/03/24 06:42:31;;;;;;;37.05;15.82;;;7.30;77.10;;;;;;5043395;28;20465;-79
2021/03/24 06:45:23;;;;;;;31.02;15.18;;;8.80;71.70;;;;;;5039566;28;20048;-79
2021/03/24 06:48:10;;;;;;;30.20;15.27;;;8.20;71.10;;;;;;5049103;28;20053;-79
2021/03/24 06:51:03;;;;;;;34.60;15.75;;;7.20;73.20;;;;;;5045614;28;20064;-78
2021/03/24 06:54:14;;;;;;;34.80;15.93;;;6.40;77.80;;;;;;5047115;28;20370;-78
2021/03/24 06:57:07;;;;;;;35.92;16.45;;;6.40;78.30;;;;;;5046749;28;20551;-78
2021/03/24 06:59:57;;;;;;;31.23;15.10;;;6.00;79.20;;;;;;5047055;28;20053;-81
2021/03/24 07:03:01;;;;;;;33.05;16.08;;;6.50;79.80;;;;;;5045115;28;20064;-80
2021/03/24 07:05:40;;;;;;;35.33;17.27;;;6.50;78.20;;;;;;5044724;28;20389;-80
2021/03/24 07:08:37;;;;;;;37.40;16.65;;;6.40;79.90;;;;;;5049482;28;20149;-81
2021/03/24 07:11:07;;;;;;;33.08;16.13;;;6.80;78.20;;;;;;5046113;28;20152;-81
2021/03/24 07:14:15;;;;;;;35.42;16.92;;;6.80;77.50;;;;;;5045717;28;20107;-80
2021/03/24 07:16:50;;;;;;;39.15;17.90;;;6.80;77.30;;;;;;5060843;28;20378;-80
2021/03/24 07:19:56;;;;;;;34.67;17.55;;;7.50;75.60;;;;;;5061055;28;20053;-80
2021/03/24 07:22:38;;;;;;;37.03;16.88;;;8.40;72.30;;;;;;5047947;28;20048;-79
2021/03/24 07:25:07;;;;;;;37.80;17.80;;;8.00;71.60;;;;;;5048887;28;20048;-79
2021/03/24 07:28:07;;;;;;;45.53;18.08;;;8.00;72.00;;;;;;5047997;28;20052;-80
2021/03/24 07:30:37;;;;;;;36.80;16.58;;;8.00;73.00;;;;;;5050978;28;20072;-80
2021/03/24 07:33:42;;;;;;;34.50;17.45;;;8.50;70.80;;;;;;5051135;28;20084;-80
2021/03/24 07:36:27;;;;;;;35.47;16.83;;;9.70;68.80;;;;;;5050582;28;20110;-81
2021/03/24 07:39:13;;;;;;;38.40;16.85;;;9.40;66.40;;;;;;5046555;28;20053;-80
2021/03/24 07:41:48;;;;;;;36.15;17.15;;;8.30;68.50;;;;;;5047445;28;20064;-80
2021/03/24 07:44:40;;;;;;;33.25;15.73;;;7.80;70.90;;;;;;5049967;28;20056;-81
2021/03/24 07:47:23;;;;;;;32.17;16.42;;;9.30;68.30;;;;;;5045780;28;20037;-80
2021/03/24 07:50:06;;;;;;;33.83;16.20;;;10.60;61.90;;;;;;5047070;28;20243;-80
2021/03/24 07:52:59;;;;;;;37.40;17.55;;;9.80;62.10;;;;;;5043721;28;20049;-79
2021/03/24 07:55:42;;;;;;;34.58;16.50;;;9.40;64.20;;;;;;5048160;28;20045;-79
2021/03/24 07:58:32;;;;;;;39.08;16.50;;;10.00;62.60;;;;;;5048003;28;20044;-79
2021/03/24 08:01:18;;;;;;;;;;;10.50;59.90;;;;;;5045549;28;20051;-79
2021/03/24 08:04:12;;;;;;;30.60;15.35;;;10.80;59.70;;;;;;5049858;28;19928;-78
2021/03/24 08:07:01;;;;;;;35.90;16.88;;;11.00;58.60;;;;;;5046034;28;20508;-78
2021/03/24 08:10:03;;;;;;;35.83;16.20;;;10.50;59.50;;;;;;5047459;28;20531;-82
2021/03/24 08:12:37;;;;;;;30.98;16.17;;;10.60;59.70;;;;;;5044085;28;20049;-82
2021/03/24 08:15:08;;;;;;;27.60;14.45;;;12.10;57.50;;;;;;5048822;28;20053;-79
2021/03/24 08:17:59;;;;;;;30.38;15.02;;;11.80;55.70;;;;;;5043440;28;20167;-81
2021/03/24 08:20:37;;;;;;;29.88;15.13;;;10.20;57.80;;;;;;5040946;28;20049;-75
2021/03/24 08:23:12;;;;;;;32.33;15.95;;;9.10;62.90;;;;;;5042005;28;20060;-80
2021/03/24 08:26:10;;;;;;;30.90;15.38;;;9.40;64.10;;;;;;5046116;28;20154;-80
2021/03/24 08:28:54;;;;;;;29.83;16.02;;;9.40;62.50;;;;;;5064216;28;20049;-82
2021/03/24 08:31:52;;;;;;;30.73;15.23;;;9.70;64.00;;;;;;5042375;28;20046;-80
2021/03/24 08:34:42;;;;;;;35.30;14.30;;;11.20;61.20;;;;;;5061502;28;20064;-81
2021/03/24 08:37:58;;;;;;;30.60;14.60;;;13.60;54.90;;;;;;5046224;28;20727;-80
2021/03/24 08:41:11;;;;;;;27.27;14.75;;;12.20;55.50;;;;;;5034813;28;20056;-81
2021/03/24 08:43:47;;;;;;;34.78;15.18;;;12.30;57.20;;;;;;5040380;28;20053;-81
2021/03/24 08:46:22;;;;;;;27.27;14.75;;;12.50;55.70;;;;;;5042533;28;20099;-81
2021/03/24 08:49:18;;;;;;;25.50;14.30;;;11.60;56.20;;;;;;5043377;28;20521;-82
2021/03/24 08:52:11;;;;;;;29.08;15.40;;;11.80;56.60;;;;;;5046197;28;20512;-81
2021/03/24 08:55:02;;;;;;;32.50;15.73;;;12.40;55.60;;;;;;5044952;28;20582;-82
2021/03/24 08:57:45;;;;;;;;;;;11.50;56.00;;;;;;5045832;28;20423;-83
2021/03/24 09:00:42;;;;;;;30.52;12.68;;;11.00;58.50;;;;;;5046801;28;19972;-82
2021/03/24 09:03:23;;;;;;;28.92;14.00;;;11.40;58.50;;;;;;5045218;28;20063;-77
2021/03/24 09:06:23;;;;;;;27.73;12.57;;;12.40;56.40;;;;;;5049260;28;20124;-78
2021/03/24 09:09:21;;;;;;;25.45;13.02;;;13.30;55.30;;;;;;5046224;28;20209;-78
2021/03/24 09:12:39;;;;;;;27.30;13.25;;;13.80;53.00;;;;;;5044099;28;20064;-85
2021/03/24 09:15:17;;;;;;;23.92;13.02;;;12.30;54.80;;;;;;5047298;28;20059;-84
2021/03/24 09:18:20;;;;;;;26.95;12.60;;;12.10;56.60;;;;;;5050513;28;20057;-84
2021/03/24 09:21:24;;;;;;;24.92;13.15;;;11.80;56.70;;;;;;5050090;28;20155;-85
2021/03/24 09:24:12;;;;;;;23.55;11.95;;;11.70;56.80;;;;;;5054902;28;20052;-82
2021/03/24 09:27:05;;;;;;;25.58;12.20;;;12.20;56.00;;;;;;5050673;28;20190;-82
2021/03/24 09:30:09;;;;;;;24.02;11.68;;;13.10;54.40;;;;;;5048820;28;20083;-83
2021/03/24 09:32:48;;;;;;;24.77;13.32;;;13.40;53.60;;;;;;5050986;28;20576;-80
2021/03/24 09:35:23;;;;;;;31.88;12.52;;;13.60;52.90;;;;;;5051419;28;20059;-80
2021/03/24 09:37:59;;;;;;;25.67;12.65;;;14.40;52.30;;;;;;5048599;28;20080;-77
2021/03/24 09:40:45;;;;;;;30.77;13.75;;;14.40;52.00;;;;;;5053618;28;20187;-85
2021/03/24 09:43:29;;;;;;;24.88;13.02;;;13.90;51.90;;;;;;5035726;28;20065;-84
2021/03/24 09:46:18;;;;;;;29.38;12.98;;;14.30;52.20;;;;;;5051900;28;20045;-85
2021/03/24 09:48:52;;;;;;;22.50;12.50;;;15.90;49.00;;;;;;5052437;28;20049;-84
2021/03/24 09:51:44;;;;;;;20.35;11.88;;;17.50;46.80;;;;;;5051040;28;20049;-86
2021/03/24 09:54:22;;;;;;;24.87;12.73;;;16.10;46.20;;;;;;5051277;28;20044;-86
2021/03/24 09:57:04;;;;;;;24.90;12.60;;;14.60;49.10;;;;;;5053638;28;20068;-86
2021/03/24 09:59:49;;;;;;;29.98;13.00;;;13.60;50.60;;;;;;5048965;28;20064;-85
2021/03/24 10:02:28;;;;;;;25.85;13.20;;;13.40;52.30;;;;;;5049488;28;20434;-80
2021/03/24 10:05:05;;;;;;;26.13;12.53;;;14.30;52.10;;;;;;5050903;28;20052;-78
2021/03/24 10:07:37;;;;;;;27.77;13.50;;;15.20;48.60;;;;;;5032054;28;20135;-84
2021/03/24 10:10:16;;;;;;;21.50;12.30;;;14.20;50.30;;;;;;5050790;28;20129;-85
2021/03/24 10:12:57;;;;;;;27.25;12.18;;;15.80;49.20;;;;;;5051918;28;20048;-84
2021/03/24 10:15:45;;;;;;;20.38;10.90;;;17.10;47.10;;;;;;5049307;28;20071;-84
2021/03/24 10:18:20;;;;;;;25.05;11.45;;;15.70;47.10;;;;;;5050769;28;20049;-80
2021/03/24 10:21:12;;;;;;;21.85;11.60;;;14.20;49.80;;;;;;5049046;28;20119;-79
2021/03/24 10:23:52;;;;;;;19.23;11.25;;;13.30;51.20;;;;;;5046953;28;20376;-78
2021/03/24 10:26:38;;;;;;;;;;;13.10;52.20;;;;;;5046933;28;20049;-81
2021/03/24 10:29:15;;;;;;;24.23;11.27;;;14.50;50.70;;;;;;5077061;28;19929;-79
2021/03/24 10:32:05;;;;;;;21.77;11.20;;;14.70;48.40;;;;;;5033149;28;20057;-78
2021/03/24 10:34:41;;;;;;;21.52;10.75;;;13.70;51.60;;;;;;5049338;28;20080;-77
2021/03/24 10:37:32;;;;;;;23.30;11.95;;;14.30;50.80;;;;;;5049781;28;20135;-83
2021/03/24 10:40:10;;;;;;;21.58;11.30;;;14.10;50.30;;;;;;5049851;28;20610;-83
2021/03/24 10:42:57;;;;;;;21.38;10.93;;;15.70;48.20;;;;;;5056616;28;20048;-85
2021/03/24 10:45:34;;;;;;;17.73;9.30;;;17.50;45.10;;;;;;5052272;28;20677;-84
2021/03/24 10:48:19;;;;;;;22.25;11.15;;;17.10;44.80;;;;;;5056543;28;20124;-85
2021/03/24 10:51:14;;;;;;;21.52;11.30;;;15.20;46.20;;;;;;5047885;28;20566;-79
2021/03/24 10:53:41;;;;;;;24.20;10.98;;;13.70;50.20;;;;;;5045914;28;20420;-73
2021/03/24 10:56:16;;;;;;;18.77;10.52;;;14.10;50.00;;;;;;5041901;28;20729;-71
2021/03/24 10:59:03;;;;;;;24.38;10.40;;;14.30;50.00;;;;;;5041370;28;20055;-72
2021/03/24 11:01:49;;;;;;;22.35;11.10;;;14.10;49.90;;;;;;5044959;28;20084;-71
2021/03/24 11:04:36;;;;;;;22.83;11.88;;;14.50;50.00;;;;;;5038033;28;20453;-72
2021/03/24 11:07:09;;;;;;;25.15;11.98;;;14.60;48.90;;;;;;5042121;28;20514;-73
2021/03/24 11:09:48;;;;;;;24.88;13.13;;;14.50;49.70;;;;;;5044515;28;20385;-73
2021/03/24 11:12:20;;;;;;;21.25;11.73;;;14.20;50.60;;;;;;5046386;28;20041;-73
2021/03/24 11:15:18;;;;;;;21.20;11.70;;;14.80;49.90;;;;;;5043998;28;20084;-73
2021/03/24 11:17:49;;;;;;;21.85;12.13;;;14.60;49.80;;;;;;5043625;28;20048;-73
2021/03/24 11:20:39;;;;;;;19.27;11.35;;;15.40;48.60;;;;;;5047569;28;20680;-73
2021/03/24 11:23:10;;;;;;;24.55;12.40;;;15.50;48.60;;;;;;5044584;28;20488;-73
2021/03/24 11:25:44;;;;;;;22.38;12.98;;;15.40;48.80;;;;;;5046567;28;20075;-73
2021/03/24 11:28:34;;;;;;;20.75;11.73;;;16.00;48.40;;;;;;5039850;28;20139;-74
2021/03/24 11:31:06;;;;;;;27.30;12.53;;;16.60;46.60;;;;;;5046876;28;20044;-74
2021/03/24 11:33:49;;;;;;;20.75;11.82;;;16.10;46.90;;;;;;5045977;28;20319;-81
2021/03/24 11:36:39;;;;;;;23.25;12.63;;;16.50;46.80;;;;;;5046993;28;20056;-77
2021/03/24 11:39:23;;;;;;;29.98;12.68;;;17.80;44.50;;;;;;5043169;28;20061;-72
2021/03/24 11:41:50;;;;;;;23.73;12.07;;;17.80;48.90;;;;;;5047143;28;20574;-71
2021/03/24 11:44:21;;;;;;;21.98;12.32;;;16.20;47.70;;;;;;5046491;28;20110;-77
2021/03/24 11:46:47;;;;;;;23.13;12.55;;;16.50;47.50;;;;;;5044969;28;20128;-71
2021/03/24 11:49:32;;;;;;;19.63;11.48;;;16.30;47.70;;;;;;5045516;28;23876;-74
2021/03/24 11:52:04;;;;;;;20.35;10.65;;;19.00;45.40;;;;;;5044244;28;20056;-73
2021/03/24 11:54:39;;;;;;;21.25;11.18;;;19.70;42.90;;;;;;5047589;28;20053;-74
2021/03/24 11:57:24;;;;;;;20.85;10.82;;;19.70;41.80;;;;;;5043877;28;20048;-75
2021/03/24 12:00:25;;;;;;;21.27;11.05;;;20.40;41.10;;;;;;5041815;28;20127;-74
2021/03/24 12:03:30;;;;;;;20.25;10.85;;;19.70;41.60;;;;;;5039712;28;20175;-72
2021/03/24 12:06:03;;;;;;;17.25;10.55;;;19.30;42.10;;;;;;5042893;28;20061;-73
2021/03/24 12:08:42;;;;;;;21.13;10.85;;;16.90;44.50;;;;;;5045002;28;20057;-73
2021/03/24 12:11:12;;;;;;;24.23;10.60;;;16.40;46.10;;;;;;5040411;28;20053;-73
2021/03/24 12:13:38;;;;;;;21.33;10.32;;;16.30;46.40;;;;;;5060874;28;20044;-72
2021/03/24 12:16:12;;;;;;;20.23;10.48;;;16.40;46.50;;;;;;5032676;28;20073;-73
2021/03/24 12:19:04;;;;;;;20.27;10.23;;;16.50;45.20;;;;;;5033870;28;20136;-72
2021/03/24 12:21:34;;;;;;;19.67;10.60;;;16.50;46.10;;;;;;5036814;28;20092;-73
2021/03/24 12:24:21;;;;;;;21.63;10.68;;;16.60;45.20;;;;;;5041772;28;20091;-73
2021/03/24 12:26:47;;;;;;;20.70;11.07;;;16.50;46.70;;;;;;5043141;28;20118;-73
2021/03/24 12:29:27;;;;;;;20.35;11.05;;;16.50;46.30;;;;;;5036721;28;20080;-73
2021/03/24 12:31:58;;;;;;;21.33;11.57;;;16.50;45.60;;;;;;5035864;28;20041;-72
2021/03/24 12:34:27;;;;;;;20.45;10.27;;;17.10;45.20;;;;;;5041213;28;20545;-73
2021/03/24 12:37:00;;;;;;;18.45;10.73;;;18.20;44.10;;;;;;5048201;28;20132;-72
2021/03/24 12:39:34;;;;;;;22.50;11.50;;;17.70;43.80;;;;;;5041611;28;20087;-70
2021/03/24 12:42:29;;;;;;;21.33;11.85;;;18.40;43.90;;;;;;5035095;28;20467;-71
2021/03/24 12:44:59;;;;;;;20.20;11.23;;;19.40;43.30;;;;;;5044416;28;20049;-72
2021/03/24 12:47:38;;;;;;;20.55;11.77;;;19.70;41.80;;;;;;5039500;28;20045;-73
2021/03/24 12:50:08;;;;;;;21.13;11.45;;;20.20;41.60;;;;;;5032250;28;20095;-73
2021/03/24 12:52:43;;;;;;;21.05;11.90;;;20.70;40.40;;;;;;5038512;28;20111;-73
2021/03/24 12:55:12;;;;;;;20.13;10.90;;;20.30;40.20;;;;;;5040305;28;20052;-71
2021/03/24 12:58:11;;;;;;;23.58;11.13;;;20.20;39.90;;;;;;5038639;28;20081;-72
2021/03/24 13:00:52;;;;;;;23.83;11.15;;;20.50;40.20;;;;;;5045308;28;20052;-74
2021/03/24 13:03:46;;;;;;;21.08;11.63;;;20.80;39.70;;;;;;5046938;28;20133;-74
2021/03/24 13:06:43;;;;;;;19.45;11.10;;;21.30;39.00;;;;;;5041253;28;20048;-74
2021/03/24 13:09:47;;;;;;;19.27;11.10;;;21.20;39.30;;;;;;5042652;28;20489;-74
2021/03/24 13:12:47;;;;;;;19.95;10.73;;;20.70;39.70;;;;;;5029338;28;20049;-74
2021/03/24 13:15:27;;;;;;;17.50;10.32;;;21.70;38.70;;;;;;5042489;28;20126;-74
2021/03/24 13:18:16;;;;;;;19.15;10.93;;;21.30;37.80;;;;;;5042334;28;20095;-73
2021/03/24 13:20:59;;;;;;;18.25;10.18;;;21.80;38.30;;;;;;5048630;28;20052;-73
2021/03/24 13:23:53;;;;;;;20.67;10.25;;;23.10;36.50;;;;;;5041623;28;20045;-74
2021/03/24 13:26:28;;;;;;;19.27;10.68;;;23.60;35.50;;;;;;5043279;28;20099;-73
2021/03/24 13:29:04;;;;;;;29.67;11.95;;;22.80;36.30;;;;;;5049872;28;20122;-72
2021/03/24 13:31:44;;;;;;;20.90;10.48;;;22.10;36.70;;;;;;5039954;28;20045;-71
2021/03/24 13:34:23;;;;;;;19.88;9.82;;;23.50;36.10;;;;;;5047373;28;20045;-74
2021/03/24 13:37:02;;;;;;;20.13;10.13;;;23.90;35.00;;;;;;5038684;28;20538;-73
2021/03/24 13:39:48;;;;;;;19.05;10.27;;;23.30;36.30;;;;;;5041910;28;20187;-72